Rossville, Kansas
Current Conditions -  °F | °C
As of 2:53 AM on Sunday 26 Oct 2014 (Local Time) from KTOP Reporting Station
Clear Clear  
Wind Chill: 62°   Ceiling: Unl
Heat Index: 62°   Visibility: 10mi
Dew Point: 58°   Wind: 5mph
Humidity: 86%   Direction: 90°E
Pressure: 29.94"   Gusts: NA
Location:  39.14°N, 95.95°W
Report Text: KTOP 260753Z AUTO 09004KT 10SM CLR 17/14 A2994 RMK AO2 SLP132 T01670144
Loading
Personal Weather Stations






























Interactive Weather Map
Tropical Storm Tracking
New forecast layout! Learn more

10-Day Weather Forecast

Advertisements
Track Severe Weather on mobile